createdAt,value
2017-10-09T00:02:25.504Z,0.80
2017-10-09T00:05:24.545Z,6.93
2017-10-09T00:24:34.284Z,4.95
2017-10-09T00:29:56.349Z,1.05
2017-10-09T00:41:24.618Z,1.15
2017-10-09T00:43:54.993Z,0.70
2017-10-09T00:59:21.309Z,2.15
2017-10-09T01:01:55.353Z,1.05
2017-10-09T01:07:25.623Z,1.08
2017-10-09T01:12:41.962Z,1.75
2017-10-09T01:15:13.782Z,1.10
2017-10-09T01:25:46.366Z,6.85
2017-10-09T01:28:17.376Z,0.90
2017-10-09T02:00:36.456Z,1.25
2017-10-09T02:20:06.770Z,2.35
2017-10-09T02:44:10.649Z,4.53
2017-10-09T02:46:54.855Z,1.23
2017-10-09T03:03:35.766Z,0.88
2017-10-09T03:08:55.302Z,5.85
2017-10-09T03:11:24.443Z,1.35
2017-10-09T03:27:32.495Z,1.33
2017-10-09T03:30:03.893Z,6.62
2017-10-09T03:32:34.640Z,2.53
2017-10-09T03:35:07.819Z,2.37
2017-10-09T03:40:14.617Z,6.78
2017-10-09T03:42:44.888Z,2.45
2017-10-09T03:50:41.735Z,4.00
2017-10-09T03:53:10.563Z,5.87
2017-10-09T03:55:39.875Z,5.95
2017-10-09T03:58:11.007Z,2.65
2017-10-09T04:03:22.133Z,3.28
2017-10-09T04:05:51.729Z,1.50
2017-10-09T04:08:22.653Z,2.53
2017-10-09T04:13:27.792Z,2.25
2017-10-09T04:15:56.499Z,8.10
2017-10-09T04:18:25.238Z,1.60
2017-10-09T04:20:57.374Z,3.47
2017-10-09T04:23:27.987Z,1.12
2017-10-09T04:26:18.072Z,1.50
2017-10-09T04:28:49.469Z,1.05
2017-10-09T04:31:18.089Z,3.35
2017-10-09T04:33:48.223Z,1.20
2017-10-09T04:36:17.952Z,1.30
2017-10-09T04:46:32.016Z,5.05
2017-10-09T04:49:01.638Z,2.50
2017-10-09T04:51:31.191Z,1.20
2017-10-09T04:53:59.896Z,2.30
2017-10-09T04:56:36.722Z,1.77
2017-10-09T04:59:05.426Z,1.77
2017-10-09T05:01:34.121Z,2.80
2017-10-09T05:04:02.800Z,5.68
2017-10-09T05:06:33.329Z,2.35
2017-10-09T05:09:02.315Z,1.77
2017-10-09T05:11:31.070Z,1.35
2017-10-09T05:13:59.461Z,7.87
2017-10-09T05:16:28.169Z,1.30
2017-10-09T05:18:57.689Z,7.07
2017-10-09T05:21:26.375Z,3.80
2017-10-09T05:23:55.082Z,1.60
2017-10-09T05:26:24.509Z,4.10
2017-10-09T05:28:53.223Z,4.25
2017-10-09T05:31:22.679Z,1.10
2017-10-09T05:33:51.682Z,2.42
2017-10-09T05:36:20.392Z,2.40
2017-10-09T05:38:49.084Z,7.85
2017-10-09T05:41:17.814Z,4.45
2017-10-09T05:43:46.758Z,4.37
2017-10-09T05:46:15.786Z,5.75
2017-10-09T05:48:44.768Z,7.03
2017-10-09T05:51:14.492Z,4.03
2017-10-09T05:53:43.220Z,6.85
2017-10-09T05:56:12.190Z,3.65
2017-10-09T05:58:41.190Z,2.40
2017-10-09T06:01:10.606Z,2.78
2017-10-09T06:03:39.609Z,3.83
2017-10-09T06:06:08.731Z,4.97
2017-10-09T06:08:37.528Z,3.62
2017-10-09T06:11:06.491Z,5.95
2017-10-09T06:13:36.058Z,1.40
2017-10-09T06:16:04.829Z,1.67
2017-10-09T06:18:33.818Z,1.75
2017-10-09T06:21:02.816Z,4.97
2017-10-09T06:23:32.315Z,3.75
2017-10-09T06:26:01.311Z,2.20
2017-10-09T06:28:30.297Z,6.45
2017-10-09T06:30:59.090Z,3.45
2017-10-09T06:33:27.701Z,2.28
2017-10-09T06:35:56.279Z,3.15
2017-10-09T06:38:26.032Z,7.87
2017-10-09T06:40:54.792Z,3.25
2017-10-09T06:43:23.578Z,2.45
2017-10-09T06:45:52.308Z,2.53
2017-10-09T06:48:21.049Z,2.67
2017-10-09T06:50:50.744Z,3.08
2017-10-09T06:53:19.496Z,5.03
2017-10-09T06:55:48.469Z,2.35
2017-10-09T06:58:17.214Z,3.03
2017-10-09T07:00:45.715Z,1.70
2017-10-09T07:03:15.491Z,3.00
2017-10-09T07:05:44.284Z,2.83
2017-10-09T07:08:12.772Z,1.83
2017-10-09T07:10:41.467Z,1.90
2017-10-09T07:13:10.782Z,1.43
2017-10-09T07:15:39.510Z,1.53
2017-10-09T07:18:08.192Z,1.40
2017-10-09T07:20:36.869Z,2.80
2017-10-09T07:23:05.355Z,3.00
2017-10-09T07:25:34.086Z,1.80
2017-10-09T07:28:02.783Z,1.73
2017-10-09T07:30:31.283Z,4.70
2017-10-09T07:32:59.739Z,2.07
2017-10-09T07:35:28.465Z,2.33
2017-10-09T07:37:56.968Z,3.27
2017-10-09T07:40:25.655Z,2.03
2017-10-09T07:42:54.336Z,1.73
2017-10-09T07:45:22.859Z,4.87
2017-10-09T07:47:52.104Z,2.30
2017-10-09T07:50:20.585Z,2.40
2017-10-09T07:52:49.302Z,1.90
2017-10-09T07:55:17.988Z,1.90
2017-10-09T07:57:46.517Z,2.77
2017-10-09T08:00:15.067Z,2.20
2017-10-09T08:02:43.815Z,1.50
2017-10-09T08:05:12.364Z,4.30
2017-10-09T08:07:40.893Z,2.03
2017-10-09T08:10:09.592Z,1.80
2017-10-09T08:12:38.055Z,1.40
2017-10-09T08:15:06.576Z,2.40
2017-10-09T08:17:35.550Z,1.10
2017-10-09T08:20:04.032Z,2.97
2017-10-09T08:22:33.195Z,2.87
2017-10-09T08:25:01.720Z,2.20
2017-10-09T08:27:29.890Z,1.60
2017-10-09T08:29:58.370Z,2.07
2017-10-09T08:32:26.890Z,1.40
2017-10-09T08:34:55.383Z,1.87
2017-10-09T08:37:23.893Z,6.73
2017-10-09T08:39:52.401Z,3.63
2017-10-09T08:42:20.713Z,7.33
2017-10-09T08:44:49.238Z,1.83
2017-10-09T08:47:17.730Z,3.43
2017-10-09T08:49:46.236Z,1.77
2017-10-09T08:52:14.279Z,6.43
2017-10-09T08:54:42.806Z,2.07
2017-10-09T08:57:11.873Z,3.70
2017-10-09T08:59:40.430Z,2.23
2017-10-09T09:02:08.923Z,2.27
2017-10-09T09:04:37.419Z,3.03
2017-10-09T09:07:07.440Z,1.30
2017-10-09T09:09:35.937Z,1.50
2017-10-09T09:12:04.411Z,1.60
2017-10-09T09:14:32.899Z,2.67
2017-10-09T09:17:01.376Z,1.10
2017-10-09T09:19:29.705Z,2.07
2017-10-09T09:21:58.206Z,2.23
2017-10-09T09:24:26.695Z,2.50
2017-10-09T09:26:55.175Z,3.63
2017-10-09T09:29:23.634Z,2.23
2017-10-09T09:31:52.121Z,6.37
2017-10-09T09:34:20.676Z,2.03
2017-10-09T09:36:50.161Z,2.20
2017-10-09T09:39:19.430Z,3.57
2017-10-09T09:41:48.154Z,2.03
2017-10-09T09:44:16.666Z,1.70
2017-10-09T09:46:45.182Z,1.50
2017-10-09T09:49:13.908Z,2.77
2017-10-09T09:51:42.964Z,2.00
2017-10-09T09:54:11.443Z,3.00
2017-10-09T09:56:39.800Z,2.50
2017-10-09T09:59:08.493Z,5.03
2017-10-09T10:01:36.792Z,2.57
2017-10-09T10:04:05.289Z,2.10
2017-10-09T10:06:33.778Z,2.80
2017-10-09T10:09:02.253Z,2.80
2017-10-09T10:11:31.508Z,2.43
2017-10-09T10:14:00.000Z,8.13
2017-10-09T10:16:28.480Z,2.10
2017-10-09T10:18:56.705Z,3.57
2017-10-09T10:21:25.193Z,2.10
2017-10-09T10:23:53.664Z,3.10
2017-10-09T10:26:22.227Z,2.60
2017-10-09T10:28:50.717Z,6.87
2017-10-09T10:31:19.196Z,2.70
2017-10-09T10:33:47.694Z,2.50
2017-10-09T10:36:16.381Z,3.13
2017-10-09T10:38:44.964Z,4.47
2017-10-09T10:41:13.454Z,3.00
2017-10-09T10:43:41.913Z,4.27
2017-10-09T10:46:10.404Z,3.73
2017-10-09T10:48:38.877Z,4.20
2017-10-09T10:51:07.369Z,3.30
2017-10-09T10:53:36.088Z,10.03
2017-10-09T10:56:05.319Z,4.33
2017-10-09T10:58:33.828Z,14.53
2017-10-09T11:01:02.773Z,4.20
2017-10-09T11:03:31.482Z,4.20
2017-10-09T11:06:00.264Z,3.73
2017-10-09T11:08:28.737Z,3.63
2017-10-09T11:10:58.005Z,4.17
2017-10-09T11:13:26.497Z,3.90
2017-10-09T11:15:55.187Z,5.83
2017-10-09T11:18:23.484Z,3.37
2017-10-09T11:20:52.729Z,4.80
2017-10-09T11:23:22.288Z,3.40
2017-10-09T11:25:51.602Z,4.40
2017-10-09T11:28:20.056Z,4.83
2017-10-09T11:30:48.515Z,3.67
2017-10-09T11:33:16.997Z,3.27
2017-10-09T11:35:45.447Z,8.10
2017-10-09T11:38:13.744Z,7.07
2017-10-09T11:40:42.218Z,2.80
2017-10-09T11:43:10.697Z,3.67
2017-10-09T11:45:39.186Z,8.60
2017-10-09T11:48:07.904Z,4.70
2017-10-09T11:50:36.371Z,5.50
2017-10-09T11:53:04.857Z,3.13
2017-10-09T11:55:33.365Z,5.03
2017-10-09T11:58:02.616Z,2.70
2017-10-09T12:00:31.099Z,4.30
2017-10-09T12:02:59.824Z,3.63
2017-10-09T12:05:28.746Z,10.77
2017-10-09T12:07:57.477Z,3.60
2017-10-09T12:10:25.954Z,4.47
2017-10-09T12:12:54.420Z,3.93
2017-10-09T12:15:22.904Z,5.10
2017-10-09T12:17:51.427Z,3.33
2017-10-09T12:20:19.901Z,3.97
2017-10-09T12:22:48.356Z,5.73
2017-10-09T12:25:16.850Z,2.73
2017-10-09T12:27:45.345Z,4.50
2017-10-09T12:30:14.091Z,4.33
2017-10-09T12:32:42.585Z,4.63
2017-10-09T12:35:11.053Z,3.90
2017-10-09T12:37:39.525Z,4.27
2017-10-09T12:40:08.050Z,4.63
2017-10-09T12:42:36.500Z,3.13
2017-10-09T12:45:04.957Z,4.60
2017-10-09T12:47:33.465Z,3.87
2017-10-09T12:50:02.180Z,3.60
2017-10-09T12:52:30.632Z,4.20
2017-10-09T12:54:59.112Z,3.10
2017-10-09T12:57:28.315Z,3.97
2017-10-09T12:59:56.735Z,4.60
2017-10-09T13:02:25.191Z,6.27
2017-10-09T13:04:53.646Z,4.67
2017-10-09T13:07:22.858Z,4.43
2017-10-09T13:09:51.315Z,4.13
2017-10-09T13:12:19.768Z,5.07
2017-10-09T13:14:48.191Z,3.50
2017-10-09T13:17:17.479Z,5.50
2017-10-09T13:19:45.890Z,4.87
2017-10-09T13:22:14.307Z,3.03
2017-10-09T13:24:42.770Z,2.87
2017-10-09T13:27:11.173Z,5.00
2017-10-09T13:29:39.612Z,10.40
2017-10-09T13:32:08.071Z,3.07
2017-10-09T13:34:37.257Z,3.70
2017-10-09T13:37:05.665Z,4.80
2017-10-09T13:39:34.094Z,2.90
2017-10-09T13:42:02.549Z,8.90
2017-10-09T13:44:30.978Z,8.93
2017-10-09T13:46:59.490Z,10.77
2017-10-09T13:49:27.903Z,3.53
2017-10-09T13:51:56.351Z,3.20
2017-10-09T13:54:24.835Z,6.20
2017-10-09T13:56:53.278Z,6.87
2017-10-09T13:59:21.694Z,4.13
2017-10-09T14:01:49.991Z,3.10
2017-10-09T14:04:18.664Z,3.13
2017-10-09T14:06:47.089Z,9.20
2017-10-09T14:09:15.541Z,4.93
2017-10-09T14:11:43.975Z,3.43
2017-10-09T14:14:12.389Z,4.60
2017-10-09T14:16:41.600Z,5.40
2017-10-09T14:19:10.017Z,4.87
2017-10-09T14:21:38.424Z,3.10
2017-10-09T14:24:06.875Z,3.67
2017-10-09T14:26:35.298Z,5.13
2017-10-09T14:29:04.494Z,3.47
2017-10-09T14:41:27.239Z,9.33
2017-10-09T14:43:55.669Z,2.80
2017-10-09T14:46:24.147Z,3.83
2017-10-09T14:48:52.567Z,2.67
2017-10-09T14:51:21.083Z,7.90
2017-10-09T14:53:49.699Z,4.17
2017-10-09T14:56:17.922Z,3.80
2017-10-09T14:58:46.340Z,6.73
2017-10-09T15:01:14.785Z,3.70
2017-10-09T15:03:43.203Z,6.20
2017-10-09T15:06:11.653Z,4.97
2017-10-09T15:08:40.143Z,6.00
2017-10-09T15:11:08.382Z,3.30
2017-10-09T15:13:36.798Z,4.77
2017-10-09T15:16:05.256Z,6.13
2017-10-09T15:18:33.679Z,3.43
2017-10-09T15:21:02.098Z,4.30
2017-10-09T15:23:31.328Z,8.10
2017-10-09T15:25:59.773Z,11.50
2017-10-09T15:28:28.197Z,4.27
2017-10-09T15:30:56.639Z,6.27
2017-10-09T15:33:24.863Z,5.53
2017-10-09T15:35:53.104Z,8.27
2017-10-09T15:38:22.318Z,7.53
2017-10-09T15:40:50.753Z,7.33
2017-10-09T15:43:19.168Z,4.17
2017-10-09T15:45:48.389Z,3.70
2017-10-09T15:48:16.835Z,18.87
2017-10-09T15:50:45.246Z,3.03
2017-10-09T15:53:13.664Z,4.50
2017-10-09T15:55:42.132Z,8.63
2017-10-09T15:58:10.757Z,3.20
2017-10-09T16:00:39.177Z,5.40
2017-10-09T16:03:07.596Z,3.83
2017-10-09T16:05:36.018Z,3.20
2017-10-09T16:08:05.230Z,3.40
2017-10-09T16:10:33.664Z,4.60
2017-10-09T16:13:02.091Z,5.43
2017-10-09T16:15:30.540Z,3.90
2017-10-09T16:17:58.962Z,4.17
2017-10-09T16:20:27.372Z,5.80
2017-10-09T16:22:55.837Z,6.33
2017-10-09T16:25:24.299Z,4.00
2017-10-09T16:27:52.711Z,6.27
2017-10-09T16:30:21.158Z,3.43
2017-10-09T16:32:49.576Z,3.10
2017-10-09T16:35:17.984Z,4.73
2017-10-09T16:37:47.961Z,11.30
2017-10-09T16:40:17.005Z,6.03
2017-10-09T16:42:45.713Z,5.80
2017-10-09T16:45:14.429Z,4.40
2017-10-09T16:47:42.855Z,4.30
2017-10-09T16:50:11.343Z,5.30
2017-10-09T16:52:40.047Z,5.85
2017-10-09T16:55:08.734Z,9.27
2017-10-09T16:57:37.453Z,9.27
2017-10-09T17:00:06.947Z,10.63
2017-10-09T17:02:36.613Z,10.63
2017-10-09T17:05:05.364Z,6.22
2017-10-09T17:07:35.016Z,6.82
2017-10-09T17:10:03.690Z,8.15
2017-10-09T17:12:32.353Z,6.95
2017-10-09T17:15:01.032Z,8.25
2017-10-09T17:17:32.351Z,12.80
2017-10-09T17:20:01.042Z,13.02
2017-10-09T17:22:29.310Z,9.33
2017-10-09T17:24:58.002Z,11.95
2017-10-09T17:27:26.493Z,10.00
2017-10-09T17:29:55.183Z,10.70
2017-10-09T17:32:23.862Z,8.80
2017-10-09T17:34:52.542Z,9.35
2017-10-09T17:37:21.553Z,8.10
2017-10-09T17:39:51.436Z,8.85
2017-10-09T17:42:20.179Z,9.60
2017-10-09T17:44:48.937Z,9.45
2017-10-09T17:47:17.658Z,7.28
2017-10-09T17:49:46.375Z,10.95
2017-10-09T17:52:15.125Z,7.45
2017-10-09T17:54:44.714Z,7.25
2017-10-09T17:57:13.277Z,5.90
2017-10-09T17:59:42.760Z,5.50
2017-10-09T18:02:11.634Z,10.75
2017-10-09T18:04:40.676Z,6.87
2017-10-09T18:07:10.593Z,9.98
2017-10-09T18:09:39.560Z,8.95
2017-10-09T18:12:08.561Z,10.23
2017-10-09T18:14:37.553Z,17.02
2017-10-09T18:17:06.531Z,24.23
2017-10-09T18:19:38.306Z,25.02
2017-10-09T18:22:10.605Z,16.67
2017-10-09T18:24:40.220Z,16.65
2017-10-09T18:27:09.500Z,18.05
2017-10-09T18:29:38.236Z,21.65
2017-10-09T18:32:09.294Z,18.85
2017-10-09T18:34:38.356Z,17.27
2017-10-09T18:37:07.345Z,15.60
2017-10-09T18:39:36.442Z,13.05
2017-10-09T18:42:05.793Z,18.08
2017-10-09T18:44:34.620Z,13.77
2017-10-09T18:47:03.363Z,9.60
2017-10-09T18:49:32.106Z,8.95
2017-10-09T18:52:00.589Z,7.07
2017-10-09T18:54:30.430Z,12.37
2017-10-09T18:56:59.411Z,8.50
2017-10-09T18:59:28.473Z,10.15
2017-10-09T19:04:38.789Z,6.75
2017-10-09T19:07:07.805Z,9.05
2017-10-09T19:09:36.854Z,8.88
2017-10-09T19:12:05.670Z,5.68
2017-10-09T19:14:35.419Z,7.87
2017-10-09T19:17:04.658Z,9.35
2017-10-09T19:19:33.458Z,10.00
2017-10-09T19:22:03.260Z,8.85
2017-10-09T19:24:32.205Z,7.05
2017-10-09T19:27:03.232Z,7.80
2017-10-09T19:29:33.341Z,11.60
2017-10-09T19:32:04.131Z,7.25
2017-10-09T19:34:33.352Z,9.80
2017-10-09T19:37:02.079Z,6.85
2017-10-09T19:42:11.252Z,6.03
2017-10-09T19:44:42.243Z,4.20
2017-10-09T19:47:11.445Z,6.85
2017-10-09T19:49:40.797Z,12.27
2017-10-09T19:52:09.758Z,4.55
2017-10-09T19:54:38.753Z,8.95
2017-10-09T19:57:08.165Z,5.87
2017-10-09T19:59:36.740Z,4.57
2017-10-09T20:02:06.186Z,8.23
2017-10-09T20:04:34.872Z,13.50
2017-10-09T20:07:03.869Z,5.12
2017-10-09T20:09:32.888Z,7.53
2017-10-09T20:12:01.674Z,3.90
2017-10-09T20:14:30.596Z,5.00
2017-10-09T20:17:00.351Z,13.25
2017-10-09T20:19:28.954Z,5.12
2017-10-09T20:24:50.605Z,11.20
2017-10-09T20:27:19.984Z,5.22
2017-10-09T20:29:48.996Z,4.70
2017-10-09T20:32:18.425Z,4.47
2017-10-09T20:34:48.767Z,10.52
2017-10-09T20:37:18.205Z,4.62
2017-10-09T20:39:47.124Z,4.37
2017-10-09T20:42:16.178Z,5.22
2017-10-09T20:44:45.309Z,23.45
2017-10-09T20:47:14.074Z,11.77
2017-10-09T20:49:43.276Z,5.55
2017-10-09T20:52:12.042Z,5.35
2017-10-09T20:54:40.994Z,6.18
2017-10-09T20:57:09.929Z,7.45
2017-10-09T20:59:38.687Z,5.47
2017-10-09T21:02:07.764Z,6.85
2017-10-09T21:04:36.543Z,4.35
2017-10-09T21:07:05.564Z,4.95
2017-10-09T21:09:34.318Z,5.35
2017-10-09T21:12:03.313Z,4.10
2017-10-09T21:14:32.093Z,5.70
2017-10-09T21:17:00.847Z,5.97
2017-10-09T21:19:30.361Z,5.55
2017-10-09T21:21:59.185Z,5.50
2017-10-09T21:24:27.933Z,4.85
2017-10-09T21:26:57.454Z,4.00
2017-10-09T21:29:26.256Z,4.87
2017-10-09T21:31:55.037Z,5.75
2017-10-09T21:34:23.987Z,7.43
2017-10-09T21:36:52.739Z,6.03
2017-10-09T21:39:21.532Z,5.07
2017-10-09T21:41:50.470Z,3.60
2017-10-09T21:44:19.297Z,6.45
2017-10-09T21:46:47.981Z,4.90
2017-10-09T21:49:16.945Z,4.85
2017-10-09T21:51:46.378Z,4.50
2017-10-09T21:54:15.136Z,5.20
2017-10-09T21:56:44.093Z,4.85
2017-10-09T21:59:12.827Z,5.35
2017-10-09T22:01:41.811Z,5.85
2017-10-09T22:04:11.376Z,6.03
2017-10-09T22:06:40.124Z,6.87
2017-10-09T22:09:09.093Z,5.12
2017-10-09T22:11:37.843Z,3.55
2017-10-09T22:14:06.799Z,7.85
2017-10-09T22:16:35.613Z,6.05
2017-10-09T22:19:04.349Z,4.75
2017-10-09T22:21:33.092Z,6.20
2017-10-09T22:24:01.891Z,5.28
2017-10-09T22:26:30.900Z,7.62
2017-10-09T22:28:59.653Z,3.92
2017-10-09T22:31:28.638Z,9.30
2017-10-09T22:33:57.605Z,8.77
2017-10-09T22:36:27.152Z,5.95
2017-10-09T22:38:55.958Z,5.03
2017-10-09T22:41:24.913Z,4.37
2017-10-09T22:43:54.188Z,4.85
2017-10-09T22:46:23.072Z,8.90
2017-10-09T22:48:52.025Z,7.35
2017-10-09T22:51:20.904Z,5.28
2017-10-09T22:53:49.705Z,4.72
2017-10-09T22:56:18.729Z,5.85
2017-10-09T22:58:47.530Z,4.03
2017-10-09T23:01:16.350Z,5.22
2017-10-09T23:03:46.073Z,4.18
2017-10-09T23:06:14.683Z,7.03
2017-10-09T23:08:43.562Z,5.20
2017-10-09T23:11:12.314Z,5.80
2017-10-09T23:13:41.061Z,3.92
2017-10-09T23:16:10.093Z,4.82
2017-10-09T23:18:38.842Z,5.03
2017-10-09T23:21:07.801Z,5.35
2017-10-09T23:23:36.586Z,5.85
2017-10-09T23:26:06.133Z,7.47
2017-10-09T23:28:34.716Z,7.93
2017-10-09T23:31:03.711Z,7.12
2017-10-09T23:33:32.636Z,8.30
2017-10-09T23:36:01.373Z,7.00
2017-10-09T23:38:30.332Z,7.37
2017-10-09T23:41:00.104Z,9.73
2017-10-09T23:43:29.048Z,6.35
2017-10-09T23:45:57.834Z,9.75
2017-10-09T23:48:26.854Z,9.43
2017-10-09T23:50:55.833Z,9.70
2017-10-09T23:53:24.644Z,8.30
2017-10-09T23:55:53.404Z,9.50
2017-10-09T23:58:22.358Z,11.02
